createdAt,value
2024-03-24T00:00:36.189Z,94387.00
2024-03-24T00:01:36.244Z,94383.00
2024-03-24T00:02:36.225Z,94384.00
2024-03-24T00:03:36.266Z,94384.00
2024-03-24T00:04:38.393Z,94386.00
2024-03-24T00:05:36.284Z,94387.00
2024-03-24T00:06:36.307Z,94384.00
2024-03-24T00:07:36.320Z,94383.00
2024-03-24T00:08:36.281Z,94383.00
2024-03-24T00:09:36.296Z,94382.00
2024-03-24T00:10:36.297Z,94382.00
2024-03-24T00:11:36.773Z,94383.00
2024-03-24T00:12:36.317Z,94381.00
2024-03-24T00:13:36.312Z,94385.00
2024-03-24T00:14:36.322Z,94383.00
2024-03-24T00:15:36.319Z,94385.00
2024-03-24T00:16:36.343Z,94384.00
2024-03-24T00:17:36.327Z,94385.00
2024-03-24T00:18:36.329Z,94384.00
2024-03-24T00:19:36.323Z,94381.00
2024-03-24T00:20:36.334Z,94378.00
2024-03-24T00:21:36.787Z,94377.00
2024-03-24T00:22:36.334Z,94378.00
2024-03-24T00:23:36.348Z,94379.00
2024-03-24T00:24:36.355Z,94379.00
2024-03-24T00:25:36.321Z,94379.00
2024-03-24T00:26:36.326Z,94378.00
2024-03-24T00:27:36.333Z,94380.00
2024-03-24T00:28:36.355Z,94380.00
2024-03-24T00:29:36.348Z,94384.00
2024-03-24T00:30:36.336Z,94387.00
2024-03-24T00:31:36.776Z,94383.00
2024-03-24T00:32:36.336Z,94384.00
2024-03-24T00:33:36.344Z,94379.00
2024-03-24T00:34:36.360Z,94381.00
2024-03-24T00:35:36.355Z,94384.00
2024-03-24T00:36:36.792Z,94381.00
2024-03-24T00:37:36.352Z,94383.00
2024-03-24T00:38:36.381Z,94381.00
2024-03-24T00:39:36.353Z,94380.00
2024-03-24T00:40:36.372Z,94380.00
2024-03-24T00:41:36.787Z,94381.00
2024-03-24T00:42:36.364Z,94378.00
2024-03-24T00:43:36.385Z,94375.00
2024-03-24T00:44:36.361Z,94378.00
2024-03-24T00:45:36.362Z,94376.00
2024-03-24T00:46:36.378Z,94378.00
2024-03-24T00:47:36.375Z,94376.00
2024-03-24T00:48:36.376Z,94378.00
2024-03-24T00:49:36.373Z,94377.00
2024-03-24T00:50:36.362Z,94377.00
2024-03-24T00:51:36.416Z,94372.00
2024-03-24T00:52:36.386Z,94372.00
2024-03-24T00:53:36.388Z,94369.00
2024-03-24T00:54:36.391Z,94370.00
2024-03-24T00:55:36.378Z,94370.00
2024-03-24T00:56:36.388Z,94367.00
2024-03-24T00:57:36.406Z,94365.00
2024-03-24T00:58:36.386Z,94359.00
2024-03-24T00:59:36.399Z,94357.00
2024-03-24T01:00:36.407Z,94356.00
2024-03-24T01:01:36.786Z,94356.00
2024-03-24T01:02:36.375Z,94353.00
2024-03-24T01:03:36.403Z,94353.00
2024-03-24T01:04:36.393Z,94352.00
2024-03-24T01:05:36.412Z,94350.00
2024-03-24T01:06:36.404Z,94349.00
2024-03-24T01:07:36.392Z,94348.00
2024-03-24T01:08:36.422Z,94346.00
2024-03-24T01:09:36.407Z,94345.00
2024-03-24T01:10:36.394Z,94345.00
2024-03-24T01:11:36.418Z,94346.00
2024-03-24T01:12:36.439Z,94344.00
2024-03-24T01:13:36.402Z,94345.00
2024-03-24T01:14:36.418Z,94340.00
2024-03-24T01:15:36.405Z,94337.00
2024-03-24T01:16:36.790Z,94337.00
2024-03-24T01:17:36.414Z,94334.00
2024-03-24T01:18:36.441Z,94334.00
2024-03-24T01:19:36.435Z,94333.00
2024-03-24T01:20:36.429Z,94329.00
2024-03-24T01:21:36.438Z,94325.00
2024-03-24T01:22:36.417Z,94322.00
2024-03-24T01:23:36.430Z,94321.00
2024-03-24T01:24:36.415Z,94319.00
2024-03-24T01:25:36.436Z,94320.00
2024-03-24T01:26:36.446Z,94316.00
2024-03-24T01:27:36.443Z,94317.00
2024-03-24T01:28:36.436Z,94316.00
2024-03-24T01:29:36.451Z,94316.00
2024-03-24T01:30:36.482Z,94318.00
2024-03-24T01:31:36.527Z,94317.00
2024-03-24T01:32:36.560Z,94317.00
2024-03-24T01:33:36.568Z,94315.00
2024-03-24T01:34:36.612Z,94316.00
2024-03-24T01:35:36.646Z,94317.00
2024-03-24T01:36:36.677Z,94316.00
2024-03-24T01:37:36.808Z,94315.00
2024-03-24T01:38:36.733Z,94314.00
2024-03-24T01:39:36.786Z,94314.00
2024-03-24T01:40:36.814Z,94311.00
2024-03-24T01:41:36.824Z,94314.00
2024-03-24T01:42:36.876Z,94315.00
2024-03-24T01:43:36.907Z,94312.00
2024-03-24T01:44:36.927Z,94310.00
2024-03-24T01:45:36.945Z,94308.00
2024-03-24T01:46:36.984Z,94306.00
2024-03-24T01:47:37.002Z,94307.00
2024-03-24T01:48:37.044Z,94306.00
2024-03-24T01:49:37.074Z,94304.00
2024-03-24T01:50:37.104Z,94304.00
2024-03-24T01:51:37.129Z,94303.00
2024-03-24T01:52:37.154Z,94303.00
2024-03-24T01:53:37.200Z,94303.00
2024-03-24T01:54:37.235Z,94300.00
2024-03-24T01:55:37.222Z,94303.00
2024-03-24T01:56:37.317Z,94301.00
2024-03-24T01:57:37.297Z,94302.00
2024-03-24T01:58:37.321Z,94298.00
2024-03-24T01:59:37.421Z,94296.00
2024-03-24T02:00:37.430Z,94294.00
2024-03-24T02:01:37.409Z,94292.00
2024-03-24T02:02:37.465Z,94294.00
2024-03-24T02:03:37.493Z,94294.00
2024-03-24T02:04:37.509Z,94296.00
2024-03-24T02:05:37.537Z,94298.00
2024-03-24T02:06:37.607Z,94299.00
2024-03-24T02:07:37.601Z,94297.00
2024-03-24T02:08:37.638Z,94297.00
2024-03-24T02:09:37.677Z,94294.00
2024-03-24T02:10:37.716Z,94291.00
2024-03-24T02:11:37.838Z,94287.00
2024-03-24T02:12:37.764Z,94286.00
2024-03-24T02:13:37.796Z,94280.00
2024-03-24T02:14:37.813Z,94277.00
2024-03-24T02:15:37.841Z,94273.00
2024-03-24T02:16:38.310Z,94275.00
2024-03-24T02:17:37.932Z,94272.00
2024-03-24T02:18:37.935Z,94269.00
2024-03-24T02:19:37.973Z,94268.00
2024-03-24T02:20:38.069Z,94270.00
2024-03-24T02:21:38.304Z,94271.00
2024-03-24T02:22:38.070Z,94272.00
2024-03-24T02:23:38.079Z,94272.00
2024-03-24T02:24:38.116Z,94273.00
2024-03-24T02:25:38.166Z,94272.00
2024-03-24T02:26:38.190Z,94271.00
2024-03-24T02:27:38.250Z,94267.00
2024-03-24T02:28:38.263Z,94263.00
2024-03-24T02:29:38.287Z,94255.00
2024-03-24T02:30:38.322Z,94248.00
2024-03-24T02:31:38.401Z,94237.00
2024-03-24T02:32:38.398Z,94231.00
2024-03-24T02:33:38.414Z,94232.00
2024-03-24T02:34:38.461Z,94235.00
2024-03-24T02:35:38.505Z,94235.00
2024-03-24T02:36:38.517Z,94235.00
2024-03-24T02:37:38.568Z,94236.00
2024-03-24T02:38:38.558Z,94238.00
2024-03-24T02:39:38.658Z,94236.00
2024-03-24T02:40:38.673Z,94234.00
2024-03-24T02:41:38.819Z,94231.00
2024-03-24T02:42:38.729Z,94232.00
2024-03-24T02:43:38.755Z,94232.00
2024-03-24T02:44:38.771Z,94232.00
2024-03-24T02:45:38.811Z,94230.00
2024-03-24T02:46:39.332Z,94224.00
2024-03-24T02:47:38.856Z,94222.00
2024-03-24T02:48:38.890Z,94221.00
2024-03-24T02:49:38.921Z,94219.00
2024-03-24T02:50:38.949Z,94215.00
2024-03-24T02:51:39.339Z,94215.00
2024-03-24T02:52:39.003Z,94215.00
2024-03-24T02:53:39.060Z,94214.00
2024-03-24T02:54:39.076Z,94216.00
2024-03-24T02:55:39.117Z,94218.00
2024-03-24T02:56:39.142Z,94218.00
2024-03-24T02:57:39.175Z,94218.00
2024-03-24T02:58:39.179Z,94216.00
2024-03-24T02:59:39.228Z,94216.00
2024-03-24T03:00:40.337Z,94214.00
2024-03-24T03:01:40.330Z,94215.00
2024-03-24T03:02:39.337Z,94214.00
2024-03-24T03:03:39.355Z,94211.00
2024-03-24T03:04:39.384Z,94210.00
2024-03-24T03:05:39.393Z,94208.00
2024-03-24T03:06:39.452Z,94205.00
2024-03-24T03:07:40.334Z,94204.00
2024-03-24T03:08:40.401Z,94202.00
2024-03-24T03:09:39.781Z,94203.00
2024-03-24T03:10:39.798Z,94203.00
2024-03-24T03:11:41.357Z,94204.00
2024-03-24T03:12:40.891Z,94204.00
2024-03-24T03:13:43.992Z,94203.00
2024-03-24T03:14:39.865Z,94205.00
2024-03-24T03:15:39.856Z,94201.00
2024-03-24T03:16:39.880Z,94199.00
2024-03-24T03:17:39.869Z,94196.00
2024-03-24T03:18:39.852Z,94193.00
2024-03-24T03:19:39.878Z,94188.00
2024-03-24T03:20:40.849Z,94184.00
2024-03-24T03:21:39.845Z,94184.00
2024-03-24T03:22:40.838Z,94181.00
2024-03-24T03:23:44.853Z,94182.00
2024-03-24T03:24:39.880Z,94181.00
2024-03-24T03:25:39.873Z,94180.00
2024-03-24T03:26:39.901Z,94178.00
2024-03-24T03:27:40.944Z,94179.00
2024-03-24T03:28:40.910Z,94179.00
2024-03-24T03:29:39.887Z,94181.00
2024-03-24T03:30:39.874Z,94179.00
2024-03-24T03:31:39.887Z,94180.00
2024-03-24T03:32:39.894Z,94177.00
2024-03-24T03:33:39.861Z,94176.00
2024-03-24T03:34:39.902Z,94177.00
2024-03-24T03:35:39.876Z,94180.00
2024-03-24T03:36:39.896Z,94178.00
2024-03-24T03:37:39.883Z,94175.00
2024-03-24T03:38:39.895Z,94172.00
2024-03-24T03:39:39.877Z,94167.00
2024-03-24T03:40:39.884Z,94162.00
2024-03-24T03:41:39.896Z,94156.00
2024-03-24T03:42:39.902Z,94153.00
2024-03-24T03:43:39.895Z,94153.00
2024-03-24T03:44:39.871Z,94151.00
2024-03-24T03:45:40.838Z,94151.00
2024-03-24T03:46:39.885Z,94156.00
2024-03-24T03:47:41.863Z,94155.00
2024-03-24T03:48:39.896Z,94153.00
2024-03-24T03:49:39.911Z,94152.00
2024-03-24T03:50:40.766Z,94153.00
2024-03-24T03:51:39.923Z,94153.00
2024-03-24T03:52:39.888Z,94151.00
2024-03-24T03:53:39.917Z,94150.00
2024-03-24T03:54:39.929Z,94149.00
2024-03-24T03:55:39.916Z,94146.00
2024-03-24T03:56:39.903Z,94143.00
2024-03-24T03:57:39.900Z,94145.00
2024-03-24T03:58:39.916Z,94147.00
2024-03-24T03:59:39.950Z,94147.00
2024-03-24T04:00:39.951Z,94145.00
2024-03-24T04:01:39.926Z,94147.00
2024-03-24T04:02:39.934Z,94150.00
2024-03-24T04:03:39.922Z,94149.00
2024-03-24T04:04:40.934Z,94148.00
2024-03-24T04:05:40.836Z,94150.00
2024-03-24T04:06:39.942Z,94152.00
2024-03-24T04:07:40.892Z,94152.00
2024-03-24T04:08:39.980Z,94155.00
2024-03-24T04:09:39.942Z,94155.00
2024-03-24T04:10:39.952Z,94151.00
2024-03-24T04:11:39.959Z,94151.00
2024-03-24T04:12:39.931Z,94150.00
2024-03-24T04:13:39.948Z,94145.00
2024-03-24T04:14:39.944Z,94148.00
2024-03-24T04:15:39.963Z,94145.00
2024-03-24T04:16:40.366Z,94144.00
2024-03-24T04:17:39.965Z,94143.00
2024-03-24T04:18:42.862Z,94141.00
2024-03-24T04:19:39.949Z,94140.00
2024-03-24T04:20:39.961Z,94142.00
2024-03-24T04:21:39.966Z,94143.00
2024-03-24T04:22:39.978Z,94142.00
2024-03-24T04:23:39.966Z,94143.00
2024-03-24T04:24:39.965Z,94141.00
2024-03-24T04:25:39.967Z,94136.00
2024-03-24T04:26:47.452Z,94139.00
2024-03-24T04:27:47.516Z,94143.00
2024-03-24T04:28:47.507Z,94146.00
2024-03-24T04:29:47.537Z,94146.00
2024-03-24T04:30:47.595Z,94149.00
2024-03-24T04:31:54.816Z,94152.00
2024-03-24T04:32:54.785Z,94153.00
2024-03-24T04:33:54.835Z,94153.00
2024-03-24T04:34:54.802Z,94152.00
2024-03-24T04:35:54.821Z,94150.00
2024-03-24T04:36:54.795Z,94147.00
2024-03-24T04:37:54.844Z,94145.00
2024-03-24T04:38:54.813Z,94144.00
2024-03-24T04:39:54.812Z,94144.00
2024-03-24T04:40:54.825Z,94143.00
2024-03-24T04:41:54.838Z,94141.00
2024-03-24T04:42:54.818Z,94137.00
2024-03-24T04:43:54.823Z,94136.00
2024-03-24T04:44:54.812Z,94133.00
2024-03-24T04:45:54.810Z,94135.00
2024-03-24T04:46:54.921Z,94133.00
2024-03-24T04:47:54.806Z,94130.00
2024-03-24T04:48:55.397Z,94132.00
2024-03-24T04:49:54.843Z,94135.00
2024-03-24T04:50:54.811Z,94136.00
2024-03-24T04:51:54.818Z,94139.00
2024-03-24T04:52:54.833Z,94140.00
2024-03-24T04:53:54.831Z,94141.00
2024-03-24T04:54:54.829Z,94144.00
2024-03-24T04:55:54.875Z,94141.00
2024-03-24T04:56:54.834Z,94141.00
2024-03-24T04:57:54.828Z,94139.00
2024-03-24T04:58:54.848Z,94137.00
2024-03-24T04:59:54.841Z,94138.00
2024-03-24T05:00:54.855Z,94139.00
2024-03-24T05:01:54.843Z,94139.00
2024-03-24T05:02:54.837Z,94140.00
2024-03-24T05:03:54.828Z,94135.00
2024-03-24T05:04:54.891Z,94131.00
2024-03-24T05:05:54.869Z,94129.00
2024-03-24T05:06:54.873Z,94129.00
2024-03-24T05:07:54.863Z,94127.00
2024-03-24T05:08:54.848Z,94131.00
2024-03-24T05:09:54.853Z,94133.00
2024-03-24T05:10:54.859Z,94136.00
2024-03-24T05:11:54.870Z,94138.00
2024-03-24T05:12:54.895Z,94139.00
2024-03-24T05:13:54.866Z,94139.00
2024-03-24T05:14:54.869Z,94135.00
2024-03-24T05:15:54.865Z,94136.00
2024-03-24T05:16:54.917Z,94137.00
2024-03-24T05:17:54.876Z,94136.00
2024-03-24T05:18:54.869Z,94137.00
2024-03-24T05:19:54.878Z,94139.00
2024-03-24T05:20:54.891Z,94144.00
2024-03-24T05:21:54.899Z,94146.00
2024-03-24T05:22:54.900Z,94147.00
2024-03-24T05:23:54.943Z,94148.00
2024-03-24T05:24:54.993Z,94151.00
2024-03-24T05:25:55.020Z,94148.00
2024-03-24T05:26:55.022Z,94146.00
2024-03-24T05:27:55.042Z,94149.00
2024-03-24T05:28:56.093Z,94151.00
2024-03-24T05:29:55.070Z,94152.00
2024-03-24T05:30:55.093Z,94149.00
2024-03-24T05:31:55.411Z,94144.00
2024-03-24T05:32:55.179Z,94139.00
2024-03-24T05:33:55.187Z,94131.00
2024-03-24T05:34:55.238Z,94129.00
2024-03-24T05:35:55.239Z,94129.00
2024-03-24T05:36:55.411Z,94130.00
2024-03-24T05:37:55.305Z,94133.00
2024-03-24T05:38:55.319Z,94133.00
2024-03-24T05:39:55.363Z,94135.00
2024-03-24T05:40:55.942Z,94137.00
2024-03-24T05:41:55.415Z,94141.00
2024-03-24T05:42:55.468Z,94143.00
2024-03-24T05:43:55.485Z,94144.00
2024-03-24T05:44:55.504Z,94148.00
2024-03-24T05:45:55.530Z,94148.00
2024-03-24T05:46:56.546Z,94146.00
2024-03-24T05:47:55.595Z,94149.00
2024-03-24T05:48:55.608Z,94147.00
2024-03-24T05:49:55.646Z,94148.00
2024-03-24T05:50:55.660Z,94147.00
2024-03-24T05:51:55.724Z,94148.00
2024-03-24T05:52:55.728Z,94150.00
2024-03-24T05:53:55.758Z,94148.00
2024-03-24T05:54:55.796Z,94148.00
2024-03-24T05:55:56.819Z,94144.00
2024-03-24T05:56:56.477Z,94144.00
2024-03-24T05:57:55.801Z,94142.00
2024-03-24T05:58:55.797Z,94146.00
2024-03-24T05:59:55.816Z,94147.00
2024-03-24T06:00:55.824Z,94149.00
2024-03-24T06:01:55.880Z,94153.00
2024-03-24T06:02:55.799Z,94153.00
2024-03-24T06:03:55.806Z,94155.00
2024-03-24T06:04:55.811Z,94154.00
2024-03-24T06:05:55.821Z,94156.00
2024-03-24T06:06:55.963Z,94159.00
2024-03-24T06:07:55.810Z,94161.00
2024-03-24T06:08:56.431Z,94161.00
2024-03-24T06:09:55.816Z,94163.00
2024-03-24T06:10:55.827Z,94161.00
2024-03-24T06:11:55.837Z,94163.00
2024-03-24T06:12:55.843Z,94164.00
2024-03-24T06:13:55.875Z,94172.00
2024-03-24T06:14:55.891Z,94170.00
2024-03-24T06:15:55.887Z,94171.00
2024-03-24T06:16:55.940Z,94166.00
2024-03-24T06:17:55.947Z,94167.00
2024-03-24T06:18:55.976Z,94170.00
2024-03-24T06:19:55.982Z,94170.00
2024-03-24T06:20:56.021Z,94172.00
2024-03-24T06:21:56.440Z,94173.00
2024-03-24T06:22:56.072Z,94170.00
2024-03-24T06:23:56.099Z,94172.00
2024-03-24T06:24:56.152Z,94171.00
2024-03-24T06:25:56.171Z,94175.00
2024-03-24T06:26:56.210Z,94177.00
2024-03-24T06:27:56.230Z,94178.00
2024-03-24T06:28:56.284Z,94177.00
2024-03-24T06:29:56.299Z,94178.00
2024-03-24T06:30:56.300Z,94179.00
2024-03-24T06:31:56.453Z,94178.00
2024-03-24T06:32:56.356Z,94178.00
2024-03-24T06:33:56.401Z,94178.00
2024-03-24T06:34:56.424Z,94179.00
2024-03-24T06:35:57.437Z,94182.00
2024-03-24T06:36:56.960Z,94184.00
2024-03-24T06:37:56.491Z,94184.00
2024-03-24T06:38:56.519Z,94185.00
2024-03-24T06:39:56.565Z,94187.00
2024-03-24T06:40:56.572Z,94189.00
2024-03-24T06:41:56.631Z,94190.00
2024-03-24T06:42:56.690Z,94194.00
2024-03-24T06:43:56.705Z,94195.00
2024-03-24T06:44:56.720Z,94195.00
2024-03-24T06:45:56.750Z,94198.00
2024-03-24T06:46:57.044Z,94197.00
2024-03-24T06:47:56.797Z,94198.00
2024-03-24T06:48:57.455Z,94197.00
2024-03-24T06:49:56.886Z,94199.00
2024-03-24T06:50:56.896Z,94199.00
2024-03-24T06:51:56.908Z,94196.00
2024-03-24T06:52:56.945Z,94196.00
2024-03-24T06:53:56.964Z,94191.00
2024-03-24T06:54:57.022Z,94189.00
2024-03-24T06:55:57.030Z,94190.00
2024-03-24T06:56:57.101Z,94192.00
2024-03-24T06:57:57.108Z,94195.00
2024-03-24T06:58:57.123Z,94195.00
2024-03-24T06:59:57.149Z,94194.00
2024-03-24T07:00:57.180Z,94197.00
2024-03-24T07:01:57.962Z,94197.00
2024-03-24T07:02:57.255Z,94201.00
2024-03-24T07:03:57.295Z,94202.00
2024-03-24T07:04:57.291Z,94202.00
2024-03-24T07:05:57.333Z,94201.00
2024-03-24T07:06:57.371Z,94200.00
2024-03-24T07:07:57.374Z,94202.00
2024-03-24T07:08:57.446Z,94202.00
2024-03-24T07:09:58.400Z,94205.00
2024-03-24T07:10:57.505Z,94203.00
2024-03-24T07:11:57.528Z,94204.00
2024-03-24T07:12:57.554Z,94205.00
2024-03-24T07:13:57.573Z,94207.00
2024-03-24T07:14:57.596Z,94205.00
2024-03-24T07:15:57.652Z,94208.00
2024-03-24T07:16:57.948Z,94209.00
2024-03-24T07:17:57.723Z,94208.00
2024-03-24T07:18:57.745Z,94208.00
2024-03-24T07:19:57.781Z,94206.00
2024-03-24T07:20:57.802Z,94204.00
2024-03-24T07:21:57.834Z,94202.00
2024-03-24T07:22:59.489Z,94203.00
2024-03-24T07:23:57.883Z,94201.00
2024-03-24T07:24:57.912Z,94202.00
2024-03-24T07:25:57.969Z,94202.00
2024-03-24T07:26:58.510Z,94202.00
2024-03-24T07:27:58.037Z,94205.00
2024-03-24T07:28:58.066Z,94207.00
2024-03-24T07:29:58.089Z,94208.00
2024-03-24T07:30:58.131Z,94211.00
2024-03-24T07:31:58.158Z,94214.00
2024-03-24T07:32:58.207Z,94215.00
2024-03-24T07:33:58.228Z,94218.00
2024-03-24T07:34:58.241Z,94221.00
2024-03-24T07:35:58.295Z,94224.00
2024-03-24T07:36:58.984Z,94226.00
2024-03-24T07:37:58.450Z,94226.00
2024-03-24T07:38:58.390Z,94225.00
2024-03-24T07:39:58.418Z,94222.00
2024-03-24T07:40:58.466Z,94221.00
2024-03-24T07:41:58.481Z,94219.00
2024-03-24T07:42:58.506Z,94218.00
2024-03-24T07:43:58.558Z,94220.00
2024-03-24T07:44:58.573Z,94219.00
2024-03-24T07:45:58.611Z,94221.00
2024-03-24T07:46:58.985Z,94219.00
2024-03-24T07:47:58.691Z,94215.00
2024-03-24T07:48:58.695Z,94208.00
2024-03-24T07:49:58.728Z,94201.00
2024-03-24T07:50:58.760Z,94198.00
2024-03-24T07:51:58.828Z,94195.00
2024-03-24T07:52:58.830Z,94193.00
2024-03-24T07:53:58.882Z,94191.00
2024-03-24T07:54:58.867Z,94192.00
2024-03-24T07:55:58.954Z,94192.00
2024-03-24T07:56:58.991Z,94194.00
2024-03-24T07:57:58.976Z,94196.00
2024-03-24T07:58:59.007Z,94199.00
2024-03-24T07:59:59.052Z,94199.00
2024-03-24T08:00:59.098Z,94198.00
2024-03-24T08:01:59.138Z,94198.00
2024-03-24T08:02:59.140Z,94199.00
2024-03-24T08:03:59.210Z,94201.00
2024-03-24T08:04:59.187Z,94200.00
2024-03-24T08:05:59.230Z,94203.00
2024-03-24T08:06:59.273Z,94203.00
2024-03-24T08:07:59.299Z,94204.00
2024-03-24T08:08:59.302Z,94204.00
2024-03-24T08:09:59.351Z,94204.00
2024-03-24T08:10:59.359Z,94202.00
2024-03-24T08:11:59.506Z,94202.00
2024-03-24T08:12:59.422Z,94201.00
2024-03-24T08:13:59.451Z,94202.00
2024-03-24T08:14:59.453Z,94200.00
2024-03-24T08:15:59.516Z,94196.00
2024-03-24T08:16:59.533Z,94198.00
2024-03-24T08:17:59.584Z,94195.00
2024-03-24T08:18:59.592Z,94196.00
2024-03-24T08:19:59.594Z,94195.00
2024-03-24T08:20:59.633Z,94197.00
2024-03-24T08:21:59.681Z,94197.00
2024-03-24T08:22:59.679Z,94198.00
2024-03-24T08:23:59.727Z,94197.00
2024-03-24T08:24:59.765Z,94197.00
2024-03-24T08:26:00.529Z,94195.00
2024-03-24T08:26:59.812Z,94195.00
2024-03-24T08:27:59.843Z,94193.00
2024-03-24T08:28:59.884Z,94194.00
2024-03-24T08:29:59.906Z,94195.00
2024-03-24T08:30:59.914Z,94196.00
2024-03-24T08:31:59.946Z,94196.00
2024-03-24T08:32:59.963Z,94196.00
2024-03-24T08:33:59.989Z,94196.00
2024-03-24T08:35:00.028Z,94197.00
2024-03-24T08:36:00.056Z,94199.00
2024-03-24T08:37:00.517Z,94195.00
2024-03-24T08:38:00.105Z,94197.00
2024-03-24T08:39:00.133Z,94200.00
2024-03-24T08:40:01.005Z,94203.00
2024-03-24T08:41:01.215Z,94202.00
2024-03-24T08:42:02.891Z,94204.00
2024-03-24T08:43:00.243Z,94208.00
2024-03-24T08:44:00.232Z,94209.00
2024-03-24T08:45:00.270Z,94212.00
2024-03-24T08:46:00.240Z,94216.00
2024-03-24T08:47:00.256Z,94219.00
2024-03-24T08:48:00.284Z,94222.00
2024-03-24T08:49:00.246Z,94223.00
2024-03-24T08:50:00.284Z,94227.00
2024-03-24T08:51:00.246Z,94228.00
2024-03-24T08:52:00.512Z,94229.00
2024-03-24T08:53:00.231Z,94231.00
2024-03-24T08:54:00.234Z,94232.00
2024-03-24T08:55:00.254Z,94234.00
2024-03-24T08:56:00.256Z,94233.00
2024-03-24T08:57:00.540Z,94233.00
2024-03-24T08:58:00.259Z,94234.00
2024-03-24T08:59:00.272Z,94230.00
2024-03-24T09:00:00.341Z,94236.00
2024-03-24T09:01:00.247Z,94238.00
2024-03-24T09:02:00.251Z,94238.00
2024-03-24T09:03:00.275Z,94240.00
2024-03-24T09:04:00.406Z,94240.00
2024-03-24T09:05:00.373Z,94240.00
2024-03-24T09:06:00.269Z,94239.00
2024-03-24T09:07:00.576Z,94241.00
2024-03-24T09:08:00.286Z,94247.00
2024-03-24T09:09:00.276Z,94246.00
2024-03-24T09:10:00.355Z,94248.00
2024-03-24T09:11:00.332Z,94247.00
2024-03-24T09:12:00.548Z,94248.00
2024-03-24T09:13:00.294Z,94246.00
2024-03-24T09:14:00.284Z,94247.00
2024-03-24T09:15:00.314Z,94248.00
2024-03-24T09:16:00.338Z,94249.00
2024-03-24T09:17:00.325Z,94251.00
2024-03-24T09:18:00.341Z,94253.00
2024-03-24T09:19:00.297Z,94251.00
2024-03-24T09:20:00.303Z,94253.00
2024-03-24T09:21:00.300Z,94250.00
2024-03-24T09:22:01.009Z,94252.00
2024-03-24T09:23:00.383Z,94252.00
2024-03-24T09:24:00.300Z,94251.00
2024-03-24T09:25:00.336Z,94251.00
2024-03-24T09:26:01.335Z,94250.00
2024-03-24T09:27:00.349Z,94250.00
2024-03-24T09:28:00.334Z,94251.00
2024-03-24T09:29:00.368Z,94252.00
2024-03-24T09:30:00.533Z,94255.00
2024-03-24T09:31:00.349Z,94255.00
2024-03-24T09:32:00.350Z,94255.00
2024-03-24T09:33:00.341Z,94254.00
2024-03-24T09:34:00.385Z,94251.00
2024-03-24T09:35:08.578Z,94253.00
2024-03-24T09:36:01.346Z,94252.00
2024-03-24T09:37:00.374Z,94254.00
2024-03-24T09:38:00.537Z,94258.00
2024-03-24T09:39:00.355Z,94257.00
2024-03-24T09:40:00.349Z,94261.00
2024-03-24T09:41:00.368Z,94262.00
2024-03-24T09:42:00.338Z,94266.00
2024-03-24T09:43:00.602Z,94265.00
2024-03-24T09:44:00.443Z,94269.00
2024-03-24T09:45:00.357Z,94270.00
2024-03-24T09:46:00.409Z,94268.00
2024-03-24T09:47:00.404Z,94269.00
2024-03-24T09:48:00.362Z,94270.00
2024-03-24T09:49:00.366Z,94270.00
2024-03-24T09:50:00.436Z,94270.00
2024-03-24T09:51:00.380Z,94270.00
2024-03-24T09:52:00.381Z,94275.00
2024-03-24T09:53:01.517Z,94276.00
2024-03-24T09:54:00.386Z,94277.00
2024-03-24T09:55:00.447Z,94277.00
2024-03-24T09:56:00.464Z,94277.00
2024-03-24T09:57:00.504Z,94276.00
2024-03-24T09:58:07.167Z,94271.00
2024-03-24T09:59:01.520Z,94268.00
2024-03-24T10:00:00.509Z,94263.00
2024-03-24T10:01:00.533Z,94263.00
2024-03-24T10:02:00.513Z,94264.00
2024-03-24T10:03:00.607Z,94263.00
2024-03-24T10:04:01.052Z,94265.00
2024-03-24T10:05:00.545Z,94264.00
2024-03-24T10:06:00.532Z,94264.00
2024-03-24T10:07:00.529Z,94262.00
2024-03-24T10:08:00.550Z,94262.00
2024-03-24T10:09:00.531Z,94260.00
2024-03-24T10:10:00.559Z,94260.00
2024-03-24T10:11:00.556Z,94259.00
2024-03-24T10:12:00.544Z,94255.00
2024-03-24T10:13:00.532Z,94255.00
2024-03-24T10:14:00.624Z,94252.00
2024-03-24T10:15:00.538Z,94249.00
2024-03-24T10:16:00.553Z,94248.00
2024-03-24T10:17:00.519Z,94246.00
2024-03-24T10:18:00.560Z,94246.00
2024-03-24T10:19:00.571Z,94248.00
2024-03-24T10:20:00.564Z,94247.00
2024-03-24T10:21:00.619Z,94245.00
2024-03-24T10:22:00.737Z,94243.00
2024-03-24T10:23:00.745Z,94241.00
2024-03-24T10:24:00.694Z,94235.00
2024-03-24T10:25:00.775Z,94233.00
2024-03-24T10:26:00.672Z,94238.00
2024-03-24T10:27:00.840Z,94244.00
2024-03-24T10:28:01.067Z,94240.00
2024-03-24T10:29:00.702Z,94243.00
2024-03-24T10:30:00.834Z,94243.00
2024-03-24T10:31:00.747Z,94245.00
2024-03-24T10:32:03.129Z,94242.00
2024-03-24T10:33:00.776Z,94239.00
2024-03-24T10:34:00.827Z,94237.00
2024-03-24T10:35:00.794Z,94235.00
2024-03-24T10:36:00.817Z,94237.00
2024-03-24T10:37:00.855Z,94235.00
2024-03-24T10:38:00.862Z,94229.00
2024-03-24T10:39:00.871Z,94224.00
2024-03-24T10:40:00.890Z,94219.00
2024-03-24T10:41:00.913Z,94219.00
2024-03-24T10:42:00.936Z,94222.00
2024-03-24T10:43:01.041Z,94225.00
2024-03-24T10:44:00.955Z,94224.00
2024-03-24T10:45:00.964Z,94228.00
2024-03-24T10:46:00.986Z,94227.00
2024-03-24T10:47:01.010Z,94225.00
2024-03-24T10:48:01.011Z,94223.00
2024-03-24T10:49:01.042Z,94222.00
2024-03-24T10:50:01.057Z,94215.00
2024-03-24T10:51:01.060Z,94218.00
2024-03-24T10:52:01.079Z,94217.00
2024-03-24T10:53:01.169Z,94218.00
2024-03-24T10:54:01.099Z,94216.00
2024-03-24T10:55:01.226Z,94214.00
2024-03-24T10:56:01.118Z,94213.00
2024-03-24T10:57:01.148Z,94211.00
2024-03-24T10:58:01.204Z,94208.00
2024-03-24T10:59:01.272Z,94202.00
2024-03-24T11:00:01.359Z,94199.00
2024-03-24T11:01:01.288Z,94199.00
2024-03-24T11:02:01.252Z,94205.00
2024-03-24T11:03:01.306Z,94203.00
2024-03-24T11:04:01.240Z,94203.00
2024-03-24T11:05:01.217Z,94199.00
2024-03-24T11:06:01.205Z,94195.00
2024-03-24T11:07:01.267Z,94194.00
2024-03-24T11:08:01.357Z,94192.00
2024-03-24T11:09:01.299Z,94193.00
2024-03-24T11:10:01.399Z,94196.00
2024-03-24T11:11:01.389Z,94196.00
2024-03-24T11:12:01.371Z,94197.00
2024-03-24T11:13:01.554Z,94196.00
2024-03-24T11:14:01.270Z,94194.00
2024-03-24T11:15:01.317Z,94194.00
2024-03-24T11:16:01.474Z,94196.00
2024-03-24T11:17:01.301Z,94193.00
2024-03-24T11:18:01.322Z,94194.00
2024-03-24T11:19:01.321Z,94190.00
2024-03-24T11:20:01.355Z,94190.00
2024-03-24T11:21:01.419Z,94184.00
2024-03-24T11:22:01.425Z,94181.00
2024-03-24T11:23:01.558Z,94186.00
2024-03-24T11:24:01.533Z,94188.00
2024-03-24T11:25:01.574Z,94185.00
2024-03-24T11:26:01.645Z,94185.00
2024-03-24T11:27:01.700Z,94184.00
2024-03-24T11:28:02.069Z,94184.00
2024-03-24T11:29:01.825Z,94185.00
2024-03-24T11:30:01.908Z,94185.00
2024-03-24T11:31:01.967Z,94188.00
2024-03-24T11:32:02.045Z,94188.00
2024-03-24T11:33:02.540Z,94186.00
2024-03-24T11:34:02.162Z,94183.00
2024-03-24T11:35:02.248Z,94180.00
2024-03-24T11:36:02.320Z,94180.00
2024-03-24T11:37:02.378Z,94180.00
2024-03-24T11:38:02.451Z,94179.00
2024-03-24T11:39:02.511Z,94175.00
2024-03-24T11:40:02.616Z,94178.00
2024-03-24T11:41:02.631Z,94179.00
2024-03-24T11:42:02.727Z,94180.00
2024-03-24T11:43:02.794Z,94180.00
2024-03-24T11:44:02.851Z,94179.00
2024-03-24T11:45:02.920Z,94178.00